createdAt,value
2023-05-02T00:02:24.491Z,97300.28
2023-05-02T00:04:52.319Z,97298.72
2023-05-02T00:07:20.695Z,97282.34
2023-05-02T00:09:48.037Z,97291.91
2023-05-02T00:12:15.181Z,97287.16
2023-05-02T00:14:42.396Z,97285.16
2023-05-02T00:17:09.820Z,97289.56
2023-05-02T00:19:40.294Z,97290.84
2023-05-02T00:22:07.706Z,97293.22
2023-05-02T00:24:34.966Z,97288.81
2023-05-02T00:27:02.373Z,97288.53
2023-05-02T00:29:29.950Z,97284.09
2023-05-02T00:31:58.098Z,97283.47
2023-05-02T00:34:31.367Z,97284.91
2023-05-02T00:36:59.177Z,97282.81
2023-05-02T00:39:26.477Z,97283.50
2023-05-02T00:42:00.773Z,97276.25
2023-05-02T00:44:28.774Z,97279.28
2023-05-02T00:46:56.946Z,97277.22
2023-05-02T00:49:25.073Z,97270.56
2023-05-02T00:51:53.698Z,97277.84
2023-05-02T00:54:21.087Z,97272.78
2023-05-02T00:56:48.661Z,97282.31
2023-05-02T00:59:16.932Z,97282.91
2023-05-02T01:02:30.641Z,97281.81
2023-05-02T01:05:28.512Z,97280.72
2023-05-02T01:08:33.907Z,97283.81
2023-05-02T01:11:04.965Z,97277.53
2023-05-02T01:13:37.931Z,97281.16
2023-05-02T01:16:07.937Z,97284.72
2023-05-02T01:18:39.563Z,97288.84
2023-05-02T01:21:11.721Z,97286.19
2023-05-02T01:24:12.712Z,97288.59
2023-05-02T01:27:07.714Z,97279.88
2023-05-02T01:29:37.450Z,97282.72
2023-05-02T01:32:06.653Z,97285.06
2023-05-02T01:34:36.310Z,97289.13
2023-05-02T01:37:06.113Z,97283.13
2023-05-02T01:39:35.193Z,97290.56
2023-05-02T01:42:05.123Z,97285.63
2023-05-02T01:44:36.020Z,97289.28
2023-05-02T01:47:07.080Z,97282.19
2023-05-02T01:49:35.758Z,97281.97
2023-05-02T01:52:07.792Z,97275.91
2023-05-02T01:54:37.260Z,97280.53
2023-05-02T01:57:08.794Z,97278.88
2023-05-02T01:59:40.644Z,97282.94
2023-05-02T02:02:09.154Z,97287.09
2023-05-02T02:04:39.859Z,97283.22
2023-05-02T02:07:14.073Z,97278.19
2023-05-02T02:09:41.830Z,97275.47
2023-05-02T02:12:16.117Z,97281.88
2023-05-02T02:14:57.036Z,97282.91
2023-05-02T02:17:57.946Z,97286.97
2023-05-02T02:20:28.402Z,97281.47
2023-05-02T02:22:57.829Z,97285.97
2023-05-02T02:25:27.030Z,97281.75
2023-05-02T02:27:54.708Z,97283.28
2023-05-02T02:30:22.077Z,97279.94
2023-05-02T02:32:49.349Z,97282.72
2023-05-02T02:35:16.649Z,97283.66
2023-05-02T02:38:14.506Z,97282.91
2023-05-02T02:40:55.288Z,97279.88
2023-05-02T02:43:36.366Z,97276.03
2023-05-02T02:46:43.096Z,97277.53
2023-05-02T02:49:59.608Z,97277.34
2023-05-02T02:52:36.135Z,97281.84
2023-05-02T02:55:32.666Z,97288.03
2023-05-02T02:58:13.202Z,97291.47
2023-05-02T03:00:41.742Z,97292.69
2023-05-02T03:03:10.697Z,97290.47
2023-05-02T03:05:38.558Z,97290.03
2023-05-02T03:08:06.779Z,97282.56
2023-05-02T03:10:34.192Z,97283.47
2023-05-02T03:13:01.660Z,97294.19
2023-05-02T03:15:45.228Z,97281.53
2023-05-02T03:18:13.181Z,97283.97
2023-05-02T03:20:42.218Z,97288.13
2023-05-02T03:23:10.622Z,97291.94
2023-05-02T03:25:39.898Z,97288.50
2023-05-02T03:28:12.370Z,97297.28
2023-05-02T03:30:42.100Z,97297.22
2023-05-02T03:33:09.728Z,97299.13
2023-05-02T03:35:38.312Z,97302.75
2023-05-02T03:38:05.773Z,97304.44
2023-05-02T03:40:33.019Z,97313.25
2023-05-02T03:43:00.774Z,97310.13
2023-05-02T03:45:32.150Z,97309.75
2023-05-02T03:48:00.503Z,97312.88
2023-05-02T03:50:28.010Z,97307.72
2023-05-02T03:52:56.275Z,97311.78
2023-05-02T03:55:32.342Z,97307.88
2023-05-02T03:58:00.810Z,97310.31
2023-05-02T04:00:28.222Z,97316.56
2023-05-02T04:03:03.002Z,97314.34
2023-05-02T04:05:32.035Z,97308.16
2023-05-02T04:07:59.368Z,97319.91
2023-05-02T04:10:26.885Z,97321.38
2023-05-02T04:12:57.983Z,97323.47
2023-05-02T04:15:26.323Z,97324.13
2023-05-02T04:17:54.642Z,97322.38
2023-05-02T04:20:22.064Z,97328.25
2023-05-02T04:22:52.477Z,97328.25
2023-05-02T04:25:22.109Z,97328.50
2023-05-02T04:27:51.756Z,97331.97
2023-05-02T04:30:22.195Z,97335.19
2023-05-02T04:33:04.759Z,97331.13
2023-05-02T04:35:35.823Z,97331.41
2023-05-02T04:38:04.883Z,97337.72
2023-05-02T04:40:33.572Z,97333.38
2023-05-02T04:43:05.150Z,97339.91
2023-05-02T04:45:40.734Z,97344.53
2023-05-02T04:48:14.062Z,97338.91
2023-05-02T04:50:41.352Z,97334.50
2023-05-02T04:53:08.570Z,97344.63
2023-05-02T04:55:36.279Z,97343.00
2023-05-02T04:58:04.571Z,97349.19
2023-05-02T05:00:33.353Z,97342.50
2023-05-02T05:03:03.131Z,97345.72
2023-05-02T05:05:30.490Z,97349.69
2023-05-02T05:07:57.796Z,97353.50
2023-05-02T05:10:27.462Z,97351.28
2023-05-02T05:12:54.717Z,97352.66
2023-05-02T05:15:24.160Z,97350.50
2023-05-02T05:17:56.037Z,97356.47
2023-05-02T05:20:23.572Z,97356.41
2023-05-02T05:22:53.885Z,97358.84
2023-05-02T05:25:22.497Z,97366.84
2023-05-02T05:27:52.852Z,97364.06
2023-05-02T05:30:20.915Z,97369.78
2023-05-02T05:32:48.465Z,97373.03
2023-05-02T05:35:15.868Z,97373.78
2023-05-02T05:37:43.803Z,97362.16
2023-05-02T05:40:13.987Z,97372.69
2023-05-02T05:42:44.659Z,97381.06
2023-05-02T05:45:19.807Z,97374.47
2023-05-02T05:47:47.433Z,97376.59
2023-05-02T05:50:14.804Z,97376.47
2023-05-02T05:52:43.415Z,97376.72
2023-05-02T05:55:11.276Z,97377.50
2023-05-02T05:57:39.246Z,97391.25
2023-05-02T06:00:08.453Z,97393.91
2023-05-02T06:02:43.030Z,97397.94
2023-05-02T06:05:17.407Z,97404.41
2023-05-02T06:07:44.835Z,97401.88
2023-05-02T06:10:12.382Z,97407.81
2023-05-02T06:12:42.267Z,97407.41
2023-05-02T06:15:11.135Z,97403.75
2023-05-02T06:17:39.260Z,97411.78
2023-05-02T06:20:07.917Z,97404.34
2023-05-02T06:22:35.994Z,97407.03
2023-05-02T06:25:05.284Z,97416.56
2023-05-02T06:27:33.787Z,97414.66
2023-05-02T06:30:01.542Z,97413.63
2023-05-02T06:32:32.509Z,97425.59
2023-05-02T06:34:59.830Z,97426.88
2023-05-02T06:37:27.091Z,97426.13
2023-05-02T06:39:54.416Z,97431.13
2023-05-02T06:42:21.694Z,97434.75
2023-05-02T06:44:49.102Z,97435.34
2023-05-02T06:47:16.527Z,97431.09
2023-05-02T06:49:43.955Z,97428.88
2023-05-02T06:52:11.206Z,97416.34
2023-05-02T06:54:39.600Z,97429.59
2023-05-02T06:57:07.947Z,97426.06
2023-05-02T06:59:35.293Z,97439.69
2023-05-02T07:02:05.069Z,97428.78
2023-05-02T07:04:32.789Z,97428.81
2023-05-02T07:07:00.214Z,97430.59
2023-05-02T07:09:27.425Z,97441.44
2023-05-02T07:11:54.816Z,97436.84
2023-05-02T07:14:22.089Z,97439.44
2023-05-02T07:16:49.459Z,97443.50
2023-05-02T07:19:16.766Z,97443.50
2023-05-02T07:21:44.074Z,97439.34
2023-05-02T07:24:11.279Z,97440.50
2023-05-02T07:26:38.824Z,97435.78
2023-05-02T07:29:06.930Z,97435.56
2023-05-02T07:31:34.205Z,97432.47
2023-05-02T07:34:01.474Z,97440.00
2023-05-02T07:36:28.742Z,97441.38
2023-05-02T07:38:56.006Z,97449.34
2023-05-02T07:41:23.236Z,97448.75
2023-05-02T07:43:50.460Z,97446.09
2023-05-02T07:46:17.829Z,97446.00
2023-05-02T07:48:45.425Z,97458.78
2023-05-02T07:51:13.632Z,97463.78
2023-05-02T07:53:41.065Z,97466.63
2023-05-02T07:56:08.982Z,97464.25
2023-05-02T07:58:39.447Z,97463.03
2023-05-02T08:01:06.695Z,97466.19
2023-05-02T08:03:34.230Z,97475.09
2023-05-02T08:06:02.285Z,97477.84
2023-05-02T08:08:29.742Z,97465.41
2023-05-02T08:10:56.892Z,97465.38
2023-05-02T08:13:24.188Z,97472.81
2023-05-02T08:15:51.498Z,97469.47
2023-05-02T08:18:18.860Z,97468.44
2023-05-02T08:20:46.403Z,97482.81
2023-05-02T08:23:13.663Z,97482.34
2023-05-02T08:25:40.977Z,97471.09
2023-05-02T08:28:08.187Z,97477.09
2023-05-02T08:30:35.502Z,97482.59
2023-05-02T08:33:02.823Z,97485.06
2023-05-02T08:35:30.433Z,97481.59
2023-05-02T08:37:57.694Z,97486.81
2023-05-02T08:40:38.262Z,97470.38
2023-05-02T08:43:11.022Z,97474.84
2023-05-02T08:45:43.435Z,97472.84
2023-05-02T08:48:13.886Z,97472.69
2023-05-02T08:50:44.646Z,97470.47
2023-05-02T08:53:14.522Z,97467.09
2023-05-02T08:55:43.040Z,97476.72
2023-05-02T08:58:12.139Z,97482.94
2023-05-02T09:00:42.890Z,97482.16
2023-05-02T09:03:47.005Z,97477.66
2023-05-02T09:06:22.912Z,97472.97
2023-05-02T09:08:54.663Z,97483.97
2023-05-02T09:11:22.330Z,97487.59
2023-05-02T09:13:52.457Z,97490.03
2023-05-02T09:16:27.269Z,97482.00
2023-05-02T09:18:58.158Z,97475.88
2023-05-02T09:21:40.358Z,97482.63
2023-05-02T09:24:28.174Z,97479.41
2023-05-02T09:27:04.553Z,97478.53
2023-05-02T09:29:39.105Z,97486.78
2023-05-02T09:32:07.372Z,97488.06
2023-05-02T09:34:37.418Z,97494.13
2023-05-02T09:37:05.684Z,97498.19
2023-05-02T09:39:32.929Z,97490.38
2023-05-02T09:42:01.241Z,97498.47
2023-05-02T09:44:38.097Z,97492.88
2023-05-02T09:47:06.913Z,97484.50
2023-05-02T09:49:46.134Z,97497.34
2023-05-02T09:52:19.899Z,97492.19
2023-05-02T09:54:47.629Z,97495.50
2023-05-02T09:57:15.066Z,97503.97
2023-05-02T09:59:52.994Z,97503.50
2023-05-02T10:02:22.115Z,97510.25
2023-05-02T10:04:51.774Z,97509.84
2023-05-02T10:07:19.501Z,97515.06
2023-05-02T10:09:49.755Z,97509.06
2023-05-02T10:12:19.556Z,97518.72
2023-05-02T10:14:56.973Z,97517.16
2023-05-02T10:17:31.671Z,97519.84
2023-05-02T10:20:07.558Z,97514.53
2023-05-02T10:22:36.224Z,97521.31
2023-05-02T10:25:05.109Z,97523.69
2023-05-02T10:27:33.178Z,97514.56
2023-05-02T10:30:04.479Z,97519.38
2023-05-02T10:32:34.878Z,97519.28
2023-05-02T10:35:08.158Z,97523.19
2023-05-02T10:37:38.766Z,97527.13
2023-05-02T10:40:11.733Z,97522.97
2023-05-02T10:42:43.949Z,97531.47
2023-05-02T10:45:34.581Z,97522.38
2023-05-02T10:48:26.211Z,97520.50
2023-05-02T10:51:03.897Z,97522.59
2023-05-02T10:53:40.399Z,97518.28
2023-05-02T10:56:15.171Z,97531.19
2023-05-02T10:58:46.607Z,97525.00
2023-05-02T11:01:28.989Z,97531.34
2023-05-02T11:04:10.845Z,97530.66
2023-05-02T11:07:01.312Z,97532.81
2023-05-02T11:09:28.555Z,97531.22
2023-05-02T11:11:57.614Z,97536.38
2023-05-02T11:14:31.118Z,97528.28
2023-05-02T11:17:00.963Z,97530.69
2023-05-02T11:19:31.435Z,97530.25
2023-05-02T11:22:20.888Z,97536.13
2023-05-02T11:24:50.534Z,97532.72
2023-05-02T11:27:33.648Z,97529.56
2023-05-02T11:30:09.793Z,97533.09
2023-05-02T11:32:49.797Z,97538.88
2023-05-02T11:35:27.477Z,97537.06
2023-05-02T11:37:55.152Z,97544.28
2023-05-02T11:40:23.786Z,97534.78
2023-05-02T11:42:51.204Z,97538.59
2023-05-02T11:45:18.930Z,97538.75
2023-05-02T11:47:47.568Z,97539.66
2023-05-02T11:50:18.684Z,97547.50
2023-05-02T11:52:46.281Z,97547.16
2023-05-02T11:55:15.959Z,97549.72
2023-05-02T11:57:43.670Z,97546.25
2023-05-02T12:00:13.053Z,97556.22
2023-05-02T12:02:45.908Z,97544.00
2023-05-02T12:05:15.180Z,97554.09
2023-05-02T12:07:49.450Z,97554.66
2023-05-02T12:10:16.951Z,97550.19
2023-05-02T12:12:45.053Z,97550.00
2023-05-02T12:15:13.467Z,97556.53
2023-05-02T12:17:49.470Z,97555.31
2023-05-02T12:20:17.599Z,97553.66
2023-05-02T12:22:45.706Z,97557.47
2023-05-02T12:25:13.244Z,97553.88
2023-05-02T12:27:40.569Z,97561.34
2023-05-02T12:30:08.870Z,97546.69
2023-05-02T12:32:37.215Z,97537.72
2023-05-02T12:35:05.374Z,97545.09
2023-05-02T12:37:32.665Z,97546.00
2023-05-02T12:40:00.116Z,97543.28
2023-05-02T12:42:28.530Z,97551.06
2023-05-02T12:44:57.041Z,97556.84
2023-05-02T12:47:25.121Z,97570.31
2023-05-02T12:50:00.522Z,97563.72
2023-05-02T12:52:57.607Z,97574.59
2023-05-02T12:55:27.941Z,97581.44
2023-05-02T12:58:08.653Z,97577.75
2023-05-02T13:00:41.749Z,97574.84
2023-05-02T13:03:11.167Z,97576.94
2023-05-02T13:05:38.724Z,97581.19
2023-05-02T13:08:06.312Z,97577.41
2023-05-02T13:10:33.852Z,97580.63
2023-05-02T13:13:01.736Z,97575.53
2023-05-02T13:15:29.572Z,97577.75
2023-05-02T13:17:56.996Z,97570.47
2023-05-02T13:20:24.414Z,97574.03
2023-05-02T13:22:51.830Z,97582.22
2023-05-02T13:25:19.314Z,97581.00
2023-05-02T13:27:46.718Z,97585.56
2023-05-02T13:30:14.510Z,97593.09
2023-05-02T13:32:42.094Z,97579.53
2023-05-02T13:35:14.046Z,97590.06
2023-05-02T13:37:42.018Z,97590.31
2023-05-02T13:40:09.817Z,97591.09
2023-05-02T13:42:37.097Z,97592.16
2023-05-02T13:45:06.647Z,97592.53
2023-05-02T13:47:33.922Z,97590.50
2023-05-02T13:50:01.671Z,97590.72
2023-05-02T13:52:29.154Z,97600.28
2023-05-02T13:54:56.457Z,97601.13
2023-05-02T13:57:23.770Z,97596.09
2023-05-02T13:59:51.849Z,97607.13
2023-05-02T14:02:19.105Z,97616.63
2023-05-02T14:04:46.401Z,97634.34
2023-05-02T14:07:13.726Z,97654.00
2023-05-02T14:09:40.911Z,97656.03
2023-05-02T14:12:08.355Z,97645.84
2023-05-02T14:14:36.215Z,97634.34
2023-05-02T14:17:03.937Z,97637.84
2023-05-02T14:19:31.210Z,97630.94
2023-05-02T14:21:58.827Z,97642.28
2023-05-02T14:24:26.128Z,97642.72
2023-05-02T14:26:53.379Z,97647.44
2023-05-02T14:29:21.380Z,97661.00
2023-05-02T14:31:48.673Z,97659.75
2023-05-02T14:34:16.054Z,97677.78
2023-05-02T14:36:43.315Z,97667.91
2023-05-02T14:39:10.794Z,97662.25
2023-05-02T14:41:38.261Z,97676.69
2023-05-02T14:44:05.660Z,97677.19
2023-05-02T14:46:33.028Z,97690.41
2023-05-02T14:49:00.650Z,97695.59
2023-05-02T14:51:27.892Z,97690.09
2023-05-02T14:53:55.128Z,97697.84
2023-05-02T14:56:22.492Z,97703.34
2023-05-02T14:58:50.201Z,97702.97
2023-05-02T15:01:22.475Z,97704.19
2023-05-02T15:04:05.136Z,97694.16
2023-05-02T15:06:35.596Z,97694.00
2023-05-02T15:09:03.707Z,97695.78
2023-05-02T15:11:31.753Z,97689.63
2023-05-02T15:13:59.747Z,97691.69
2023-05-02T15:16:27.613Z,97704.56
2023-05-02T15:18:55.977Z,97709.84
2023-05-02T15:21:23.374Z,97712.44
2023-05-02T15:23:51.189Z,97709.75
2023-05-02T15:26:18.446Z,97717.19
2023-05-02T15:28:45.994Z,97714.91
2023-05-02T15:31:14.101Z,97718.50
2023-05-02T15:33:41.626Z,97719.03
2023-05-02T15:36:09.553Z,97726.44
2023-05-02T15:38:39.766Z,97728.16
2023-05-02T15:41:10.087Z,97720.31
2023-05-02T15:43:37.924Z,97726.09
2023-05-02T15:46:05.458Z,97733.53
2023-05-02T15:48:33.619Z,97727.72
2023-05-02T15:51:01.725Z,97736.50
2023-05-02T15:53:29.611Z,97734.03
2023-05-02T15:55:57.223Z,97736.47
2023-05-02T15:58:24.604Z,97743.63
2023-05-02T16:00:52.686Z,97739.81
2023-05-02T16:03:20.285Z,97747.19
2023-05-02T16:05:47.673Z,97745.88
2023-05-02T16:08:15.068Z,97748.63
2023-05-02T16:10:43.640Z,97745.19
2023-05-02T16:13:11.626Z,97754.22
2023-05-02T16:15:39.739Z,97754.72
2023-05-02T16:18:07.187Z,97756.88
2023-05-02T16:20:36.828Z,97754.94
2023-05-02T16:23:05.080Z,97766.19
2023-05-02T16:25:32.794Z,97768.91
2023-05-02T16:28:01.110Z,97774.19
2023-05-02T16:30:28.598Z,97779.03
2023-05-02T16:32:56.106Z,97777.94
2023-05-02T16:35:23.549Z,97787.59
2023-05-02T16:37:50.852Z,97781.84
2023-05-02T16:40:18.738Z,97779.94
2023-05-02T16:42:46.681Z,97784.53
2023-05-02T16:45:15.355Z,97784.91
2023-05-02T16:47:43.358Z,97787.28
2023-05-02T16:50:11.291Z,97785.25
2023-05-02T16:52:38.668Z,97785.84
2023-05-02T16:55:06.817Z,97791.94
2023-05-02T16:57:34.439Z,97788.63
2023-05-02T17:00:03.385Z,97795.00
2023-05-02T17:02:31.056Z,97788.72
2023-05-02T17:04:58.456Z,97793.72
2023-05-02T17:07:25.868Z,97800.00
2023-05-02T17:09:53.725Z,97801.47
2023-05-02T17:12:23.806Z,97808.22
2023-05-02T17:14:51.741Z,97807.09
2023-05-02T17:17:22.828Z,97814.91
2023-05-02T17:19:51.501Z,97808.91
2023-05-02T17:22:19.335Z,97817.59
2023-05-02T17:24:49.573Z,97821.47
2023-05-02T17:27:17.166Z,97816.91
2023-05-02T17:29:44.691Z,97825.50
2023-05-02T17:32:14.800Z,97832.97
2023-05-02T17:34:43.595Z,97827.69
2023-05-02T17:37:11.108Z,97829.25
2023-05-02T17:39:38.654Z,97826.91
2023-05-02T17:42:06.047Z,97829.09
2023-05-02T17:44:36.500Z,97829.94
2023-05-02T17:47:04.950Z,97832.38
2023-05-02T17:49:35.526Z,97832.69
2023-05-02T17:52:02.664Z,97844.66
2023-05-02T17:54:30.304Z,97832.91
2023-05-02T17:56:57.498Z,97827.88
2023-05-02T17:59:24.993Z,97840.88
2023-05-02T18:01:52.707Z,97838.72
2023-05-02T18:04:20.798Z,97842.38
2023-05-02T18:06:48.249Z,97838.09
2023-05-02T18:09:15.656Z,97837.44
2023-05-02T18:11:43.989Z,97831.81
2023-05-02T18:14:11.352Z,97832.38
2023-05-02T18:16:39.477Z,97840.25
2023-05-02T18:19:06.974Z,97837.69
2023-05-02T18:21:37.680Z,97829.28
2023-05-02T18:24:06.158Z,97837.72
2023-05-02T18:26:33.584Z,97833.47
2023-05-02T18:29:01.056Z,97840.84
2023-05-02T18:31:28.433Z,97834.72
2023-05-02T18:33:56.120Z,97832.84
2023-05-02T18:36:28.918Z,97837.75
2023-05-02T18:38:56.556Z,97835.50
2023-05-02T18:41:23.877Z,97839.44
2023-05-02T18:43:51.204Z,97840.13
2023-05-02T18:46:18.929Z,97847.53
2023-05-02T18:48:46.431Z,97847.94
2023-05-02T18:51:13.973Z,97848.72
2023-05-02T18:53:41.287Z,97846.66
2023-05-02T18:56:17.613Z,97848.56
2023-05-02T18:58:46.191Z,97846.91
2023-05-02T19:01:20.293Z,97847.34
2023-05-02T19:03:47.945Z,97845.25
2023-05-02T19:06:18.835Z,97847.63
2023-05-02T19:08:49.811Z,97848.38
2023-05-02T19:11:17.280Z,97847.38
2023-05-02T19:13:44.543Z,97853.25
2023-05-02T19:16:15.155Z,97859.59
2023-05-02T19:18:43.534Z,97855.84
2023-05-02T19:21:13.637Z,97858.75
2023-05-02T19:23:43.179Z,97860.84
2023-05-02T19:26:17.758Z,97863.72
2023-05-02T19:28:46.576Z,97870.84
2023-05-02T19:31:19.811Z,97868.91
2023-05-02T19:33:54.904Z,97871.56
2023-05-02T19:36:24.220Z,97871.31
2023-05-02T19:38:54.107Z,97874.69
2023-05-02T19:41:22.482Z,97882.91
2023-05-02T19:43:50.576Z,97882.75
2023-05-02T19:46:18.987Z,97882.28
2023-05-02T19:48:46.491Z,97889.72
2023-05-02T19:51:14.097Z,97888.13
2023-05-02T19:53:41.603Z,97891.13
2023-05-02T19:56:08.944Z,97895.13
2023-05-02T19:58:36.366Z,97886.03
2023-05-02T20:01:03.872Z,97894.56
2023-05-02T20:03:31.473Z,97893.44
2023-05-02T20:05:59.106Z,97897.94
2023-05-02T20:08:28.029Z,97891.78
2023-05-02T20:10:56.695Z,97889.19
2023-05-02T20:13:24.372Z,97892.91
2023-05-02T20:15:53.610Z,97905.97
2023-05-02T20:18:21.393Z,97901.75
2023-05-02T20:20:48.858Z,97914.41
2023-05-02T20:23:16.288Z,97912.63
2023-05-02T20:25:44.059Z,97912.38
2023-05-02T20:28:11.726Z,97911.31
2023-05-02T20:30:43.936Z,97918.72
2023-05-02T20:33:16.186Z,97926.66
2023-05-02T20:35:45.442Z,97926.66
2023-05-02T20:38:12.939Z,97925.84
2023-05-02T20:40:42.644Z,97928.25
2023-05-02T20:43:10.050Z,97932.00
2023-05-02T20:45:38.791Z,97934.94
2023-05-02T20:48:06.581Z,97949.56
2023-05-02T20:50:34.094Z,97953.25
2023-05-02T20:53:01.508Z,97955.69
2023-05-02T20:55:29.003Z,97949.56
2023-05-02T20:57:56.624Z,97959.09
2023-05-02T21:00:24.131Z,97956.19
2023-05-02T21:02:51.454Z,97953.91
2023-05-02T21:05:18.787Z,97958.16
2023-05-02T21:07:46.563Z,97960.81
2023-05-02T21:10:14.101Z,97958.94
2023-05-02T21:12:41.417Z,97963.69
2023-05-02T21:15:09.188Z,97961.81
2023-05-02T21:17:40.933Z,97960.50
2023-05-02T21:20:09.995Z,97970.09
2023-05-02T21:22:37.348Z,97965.84
2023-05-02T21:25:05.070Z,97963.47
2023-05-02T21:27:32.517Z,97962.16
2023-05-02T21:30:00.204Z,97963.47
2023-05-02T21:32:27.827Z,97973.00
2023-05-02T21:34:55.032Z,97967.72
2023-05-02T21:37:22.927Z,97975.63
2023-05-02T21:39:50.270Z,97965.56
2023-05-02T21:42:17.653Z,97970.88
2023-05-02T21:44:45.114Z,97978.84
2023-05-02T21:47:12.498Z,97981.75
2023-05-02T21:49:40.147Z,97979.88
2023-05-02T21:52:07.834Z,97978.81
2023-05-02T21:54:35.242Z,97976.41
2023-05-02T21:57:02.837Z,97975.34
2023-05-02T21:59:30.173Z,97980.91
2023-05-02T22:01:57.713Z,97984.91
2023-05-02T22:04:25.077Z,97989.44
2023-05-02T22:06:53.006Z,97982.03
2023-05-02T22:09:23.597Z,97990.75
2023-05-02T22:11:50.989Z,97992.09
2023-05-02T22:14:18.197Z,97991.06
2023-05-02T22:16:45.442Z,97986.78
2023-05-02T22:19:14.657Z,97989.97
2023-05-02T22:21:42.226Z,97985.72
2023-05-02T22:24:09.701Z,97997.94
2023-05-02T22:26:37.074Z,97986.78
2023-05-02T22:29:04.924Z,97998.97
2023-05-02T22:31:32.250Z,97998.19
2023-05-02T22:33:59.567Z,97997.66
2023-05-02T22:36:27.881Z,97993.69
2023-05-02T22:38:55.199Z,97991.53
2023-05-02T22:41:22.428Z,97985.69
2023-05-02T22:43:50.371Z,97992.09
2023-05-02T22:46:18.605Z,97990.22
2023-05-02T22:48:45.913Z,97991.03
2023-05-02T22:51:13.701Z,97988.09
2023-05-02T22:53:40.961Z,97993.69
2023-05-02T22:56:08.423Z,97990.50
2023-05-02T22:58:35.665Z,97993.69
2023-05-02T23:01:02.909Z,97993.97
2023-05-02T23:03:30.205Z,97993.16
2023-05-02T23:05:57.467Z,97987.59
2023-05-02T23:08:24.658Z,97991.28
2023-05-02T23:10:52.192Z,97989.72
2023-05-02T23:13:19.577Z,97986.78
2023-05-02T23:15:46.969Z,97992.91
2023-05-02T23:18:14.441Z,97979.91
2023-05-02T23:20:41.804Z,97985.47
2023-05-02T23:23:09.103Z,97987.06
2023-05-02T23:25:37.161Z,97982.56
2023-05-02T23:28:04.796Z,97984.13
2023-05-02T23:30:32.625Z,97989.69
2023-05-02T23:33:00.979Z,97981.75
2023-05-02T23:35:28.285Z,97981.47
2023-05-02T23:37:55.597Z,97984.94
2023-05-02T23:40:22.891Z,97986.00
2023-05-02T23:42:50.111Z,97989.72
2023-05-02T23:45:17.571Z,97983.34
2023-05-02T23:47:44.839Z,97990.75
2023-05-02T23:50:12.518Z,97989.19
2023-05-02T23:52:39.828Z,97993.44
2023-05-02T23:55:10.914Z,97981.16
2023-05-02T23:57:38.358Z,97985.41
